• Join FlightAware (Why Join?)
  • Login
  • US Flag 
05:52AM EDT


 

Airport Tracker/Info


-or-


 

Live Flight TrackerFlight Track Log ✈ UAL5840 ✈ 16-Apr-2013 ✈ CYWG - KORD

Flight Track Log - Related Links

Times and Time Zones

All times are in EDT time to prevent confusion due to time zone crossing. See the UAL5840 flight status page for this flight to view local times or setup timezone preferences in your user account.

Time Position Orientation Groundspeed Altitude Reporting Facility
EDT Latitude Longitude Course Direction KTS MPH feet Rate Location/Type
01:43PM 49.9167 -97.2333 162° South 150 173 2,200  Level Winnipeg Center
01:44PM 49.9667 -97.2000 23° Northeast 180 207 4,400 2,100 Climbing Winnipeg Center
01:45PM 49.9500 -97.1167 107° East 250 288 6,500 2,700 Climbing Winnipeg Center
01:46PM 49.8667 -97.1167 180° South 270 311 9,900 2,220 Climbing Winnipeg Center
01:47PM 49.7833 -97.1000 173° South 320 368 11,000 1,320 Climbing Winnipeg Center
01:48PM 49.4064 -96.7282 162° South  Level FlightAware Approximate
01:48PM 49.7167 -97.0167 141° Southeast 340 391 12,600  Level Winnipeg Center
01:49PM 49.6167 -96.9333 152° Southeast 350 403 14,500 1,800 Climbing Winnipeg Center
01:50PM 49.5500 -96.8667 147° Southeast 360 414 16,300 1,680 Climbing Winnipeg Center
01:51PM 49.4500 -96.7833 152° Southeast 360 414 17,900 1,440 Climbing Winnipeg Center
01:52PM 49.3667 -96.7167 152° Southeast 370 426 19,200 1,260 Climbing Winnipeg Center
01:53PM 49.2667 -96.6000 143° Southeast 390 449 20,500 1,200 Climbing Winnipeg Center
01:54PM 49.1833 -96.5333 152° Southeast 400 460 21,700 1,260 Climbing Winnipeg Center
01:55PM 49.0833 -96.4333 147° Southeast 410 472 23,100 1,260 Climbing Winnipeg Center
01:56PM 48.9667 -96.3333 151° Southeast 410 472 24,300 1,200 Climbing Winnipeg Center
01:57PM 48.8833 -96.2500 147° Southeast 410 472 25,600 1,260 Climbing Winnipeg Center
01:58PM 48.7833 -96.1500 147° Southeast 410 472 26,900 1,200 Climbing Winnipeg Center
01:59PM 48.6833 -96.0833 156° South 410 472 28,100 1,080 Climbing Winnipeg Center
01:59PM 48.6622 -96.0461 131° Southeast 406 467 28,700 1,080 Climbing Minneapolis Center
02:00PM 48.5664 -95.9578 149° Southeast 404 465 29,900 1,020 Climbing Minneapolis Center
02:01PM 48.4900 -95.8881 149° Southeast 402 463 30,900 1,200 Climbing Minneapolis Center
02:02PM 48.3550 -95.7656 149° Southeast 405 466 32,500 1,320 Climbing Minneapolis Center
02:03PM 48.2583 -95.6778 149° Southeast 406 467 33,700 1,020 Climbing Minneapolis Center
02:04PM 48.1594 -95.5889 149° Southeast 410 472 34,700 600 Climbing Minneapolis Center
02:05PM 48.0517 -95.4931 149° Southeast 414 476 35,000 120 Climbing Minneapolis Center
02:07PM 47.9456 -95.3981 149° Southeast 432 497 35,000  Level Minneapolis Center
02:08PM 47.8350 -95.2992 149° Southeast 453 521 35,000  Level Minneapolis Center
02:09PM 47.7233 -95.2008 149° Southeast 464 534 35,000  Level Minneapolis Center
02:10PM 47.6106 -95.1017 149° Southeast 469 540 35,000  Level Minneapolis Center
02:11PM 47.4986 -95.0036 149° Southeast 471 542 35,000  Level Minneapolis Center
02:12PM 47.3642 -94.8842 149° Southeast 473 544 35,000  Level Minneapolis Center
02:13PM 47.2497 -94.7886 150° Southeast 474 545 35,000  Level Minneapolis Center
02:14PM 47.1367 -94.6889 149° Southeast 476 548 35,000  Level Minneapolis Center
02:15PM 47.0231 -94.5922 150° Southeast 476 548 35,000  Level Minneapolis Center
02:16PM 46.9072 -94.4939 150° Southeast 480 552 35,000  Level Minneapolis Center
02:17PM 46.7911 -94.3972 150° Southeast 485 558 35,000  Level Minneapolis Center
02:18PM 46.6519 -94.2789 150° Southeast 485 558 35,000  Level Minneapolis Center
02:19PM 46.5397 -94.1856 150° Southeast 473 544 35,000  Level Minneapolis Center
02:20PM 46.4264 -94.0925 150° Southeast 470 541 35,000  Level Minneapolis Center
02:21PM 46.3111 -94.0058 153° Southeast 471 542 35,000  Level Minneapolis Center
02:22PM 46.1881 -93.9381 159° South 460 529 35,000  Level Minneapolis Center
02:23PM 46.0703 -93.8750 160° South 457 526 35,000  Level Minneapolis Center
02:24PM 45.9519 -93.8094 159° South 457 526 35,000  Level Minneapolis Center
02:25PM 45.8358 -93.7456 159° South 451 519 35,000  Level Minneapolis Center
02:26PM 45.6961 -93.6706 159° South 450 518 35,000  Level Minneapolis Center
02:27PM 45.5783 -93.6053 159° South 454 522 35,000  Level Minneapolis Center
02:28PM 45.4614 -93.5431 160° South 452 520 35,000  Level Minneapolis Center
02:29PM 45.3450 -93.4794 159° South 451 519 35,000  Level Minneapolis Center
02:30PM 45.2303 -93.4083 156° South 454 522 35,000  Level Minneapolis Center
02:31PM 45.1403 -93.2525 129° Southeast 513 590 35,000  Level Minneapolis Center
02:32PM 45.0592 -93.0819 124° Southeast 519 597 35,000  Level Minneapolis Center
02:33PM 44.9925 -92.9453 125° Southeast 522 601 35,000  Level Minneapolis Center
02:34PM 44.8772 -92.7083 124° Southeast 519 597 35,000  Level Minneapolis Center
02:36PM 44.7794 -92.5047 124° Southeast 520 598 35,000  Level Minneapolis Center
02:37PM 44.6842 -92.3597 133° Southeast 506 582 35,000  Level Minneapolis Center
02:38PM 44.5822 -92.2308 138° Southeast 496 571 35,000  Level Minneapolis Center
02:39PM 44.4797 -92.1008 138° Southeast 497 572 35,000  Level Minneapolis Center
02:40PM 44.3778 -91.9728 138° Southeast 494 568 35,000  Level Minneapolis Center
02:41PM 44.2744 -91.8469 139° Southeast 494 568 35,000 -540 Level Minneapolis Center
02:42PM 44.1539 -91.6936 138° Southeast 491 565 33,900 -1,020 Descending Minneapolis Center
02:43PM 44.0725 -91.5303 125° Southeast 513 590 33,000 -900 Descending Minneapolis Center
02:44PM 44.0061 -91.3683 120° Southeast 527 606 32,100 -900 Descending Minneapolis Center
02:45PM 43.9350 -91.1944 120° Southeast 524 603 31,200 -540 Descending Minneapolis Center
02:46PM 43.8631 -91.0203 120° Southeast 523 602 31,000 -120 Descending Minneapolis Center
02:47PM 43.7775 -90.8158 120° Southeast 515 593 31,000 -300 Level Minneapolis Center
02:48PM 43.7058 -90.6439 120° Southeast 517 595 30,400 -660 Descending Minneapolis Center
02:49PM 43.6347 -90.4742 120° Southeast 514 592 29,700 -1,020 Descending Minneapolis Center
02:50PM 43.5628 -90.3067 121° Southeast 511 588 28,400 -1,560 Descending Minneapolis Center
02:51PM 43.4847 -90.1228 120° Southeast 516 594 26,600 -1,800 Descending Minneapolis Center
02:52PM 43.4106 -89.9500 121° Southeast 522 601 24,800 -1,860 Descending Minneapolis Center
02:53PM 43.3367 -89.7811 121° Southeast 518 596 22,800 -2,100 Descending Minneapolis Center
02:54PM 43.2681 -89.6214 120° Southeast 500 575 20,600 -2,340 Descending Minneapolis Center
02:55PM 43.1886 -89.4414 121° Southeast 479 551 18,000 -2,160 Descending Minneapolis Center
02:56PM 43.1033 -89.3269 136° Southeast 438 504 16,200 -1,680 Descending Minneapolis Center
02:57PM 42.9789 -89.2733 163° South 405 466 14,300 -1,440 Descending Chicago Center
02:58PM 42.8594 -89.2261 164° South 387 445 13,000 -1,020 Descending Chicago Center
02:59PM 42.7603 -89.1867 164° South 374 430 12,200 -1,020 Descending Chicago Center
03:00PM 42.6589 -89.1453 163° South 379 436 11,000 -600 Descending Chicago Center
03:01PM 42.5869 -89.0394 133° Southeast 385 443 11,000  Level Chicago Center
03:02PM 42.5350 -88.9056 118° Southeast 400 460 11,000  Level Chicago Center
03:04PM 42.4814 -88.7689 118° Southeast 408 470 11,000  Level Chicago Center
03:05PM 42.4206 -88.6136 118° Southeast 405 466 11,000 -420 Level Chicago Center
03:06PM 42.3725 -88.4889 118° Southeast 379 436 10,200 -1,080 Descending Chicago Center
03:07PM 42.3356 -88.3811 115° Southeast 325 374 8,800 -1,500 Descending Chicago Center
03:08PM 42.2592 -88.3489 163° South 276 318 7,200 -900 Descending Chicago Center
03:09PM 42.1864 -88.3369 173° South 265 305 7,000 -120 Descending Chicago Center
03:10PM 42.1125 -88.3217 171° South 269 310 7,000 -480 Level Chicago Center
03:11PM 42.0431 -88.2792 156° South 274 315 6,100 -960 Descending Chicago Center
03:12PM 41.9786 -88.2261 149° Southeast 275 316 5,100 -1,140 Descending Chicago Center
03:13PM 41.9675 -88.1394 100° East 252 290 3,800 -1,200 Descending Chicago Center
03:14PM 41.9686 -88.0608 89° East 231 266 2,700 -1,140 Descending Chicago Center
03:15PM 41.9667 -88.0000 92° East 153 176 1,600 -960 Descending Chicago TRACON
03:16PM 41.9667 -87.9333 90° East 141 162 800 -840 Descending Chicago TRACON
03:18PM 41.9667 -87.9000 143° Southeast  Level FlightAware Approximate